sensor_id;sensor_type;location;lat;lon;timestamp;temperature;humidity
11511;DHT22;5812;48.864;9.190;2022-09-03T00:04:59;16.50;48.50
11511;DHT22;5812;48.864;9.190;2022-09-03T00:07:35;16.50;37.90
11511;DHT22;5812;48.864;9.190;2022-09-03T00:10:07;16.70;35.00
11511;DHT22;5812;48.864;9.190;2022-09-03T00:12:37;16.80;20.20
11511;DHT22;5812;48.864;9.190;2022-09-03T00:15:17;16.70;27.70
11511;DHT22;5812;48.864;9.190;2022-09-03T00:17:54;16.80;20.10
11511;DHT22;5812;48.864;9.190;2022-09-03T00:22:56;16.70;41.90
11511;DHT22;5812;48.864;9.190;2022-09-03T00:25:37;16.80;31.40
11511;DHT22;5812;48.864;9.190;2022-09-03T00:28:10;16.80;22.80
11511;DHT22;5812;48.864;9.190;2022-09-03T00:30:38;16.80;33.30
11511;DHT22;5812;48.864;9.190;2022-09-03T00:33:17;16.80;31.30
11511;DHT22;5812;48.864;9.190;2022-09-03T00:35:52;16.90;14.10
11511;DHT22;5812;48.864;9.190;2022-09-03T00:38:19;17.00;19.00
11511;DHT22;5812;48.864;9.190;2022-09-03T00:46:20;17.00;14.30
11511;DHT22;5812;48.864;9.190;2022-09-03T00:48:58;17.10;23.70
11511;DHT22;5812;48.864;9.190;2022-09-03T00:51:54;17.20;8.00
11511;DHT22;5812;48.864;9.190;2022-09-03T00:54:45;17.20;16.30
11511;DHT22;5812;48.864;9.190;2022-09-03T00:57:22;17.40;1.00
11511;DHT22;5812;48.864;9.190;2022-09-03T01:03:00;17.40;2.60
11511;DHT22;5812;48.864;9.190;2022-09-03T01:06:02;17.30;19.70
11511;DHT22;5812;48.864;9.190;2022-09-03T01:11:34;17.20;9.90
11511;DHT22;5812;48.864;9.190;2022-09-03T01:14:44;17.20;12.50
11511;DHT22;5812;48.864;9.190;2022-09-03T01:30:17;17.30;13.10
11511;DHT22;5812;48.864;9.190;2022-09-03T01:33:01;17.30;17.90
11511;DHT22;5812;48.864;9.190;2022-09-03T01:41:07;17.30;12.20
11511;DHT22;5812;48.864;9.190;2022-09-03T01:46:38;17.20;27.10
11511;DHT22;5812;48.864;9.190;2022-09-03T01:49:20;17.20;28.00
11511;DHT22;5812;48.864;9.190;2022-09-03T01:52:02;17.10;20.20
11511;DHT22;5812;48.864;9.190;2022-09-03T01:57:31;17.30;9.40
11511;DHT22;5812;48.864;9.190;2022-09-03T02:00:13;17.30;28.10
11511;DHT22;5812;48.864;9.190;2022-09-03T02:02:40;17.30;28.50
11511;DHT22;5812;48.864;9.190;2022-09-03T02:05:25;17.30;35.90
11511;DHT22;5812;48.864;9.190;2022-09-03T02:08:04;17.20;37.90
11511;DHT22;5812;48.864;9.190;2022-09-03T02:10:55;17.20;31.50
11511;DHT22;5812;48.864;9.190;2022-09-03T02:13:35;17.30;35.20
11511;DHT22;5812;48.864;9.190;2022-09-03T02:16:07;17.30;18.80
11511;DHT22;5812;48.864;9.190;2022-09-03T02:18:40;17.20;23.10
11511;DHT22;5812;48.864;9.190;2022-09-03T02:21:07;17.40;15.90
11511;DHT22;5812;48.864;9.190;2022-09-03T02:23:37;17.30;30.20
11511;DHT22;5812;48.864;9.190;2022-09-03T02:26:03;17.20;23.40
11511;DHT22;5812;48.864;9.190;2022-09-03T02:28:30;17.20;26.20
11511;DHT22;5812;48.864;9.190;2022-09-03T02:30:57;17.30;26.00
11511;DHT22;5812;48.864;9.190;2022-09-03T02:33:23;17.20;46.70
11511;DHT22;5812;48.864;9.190;2022-09-03T02:35:48;17.20;32.00
11511;DHT22;5812;48.864;9.190;2022-09-03T02:38:20;17.20;21.20
11511;DHT22;5812;48.864;9.190;2022-09-03T02:40:46;17.30;27.50
11511;DHT22;5812;48.864;9.190;2022-09-03T02:43:22;17.20;28.00
11511;DHT22;5812;48.864;9.190;2022-09-03T02:45:53;17.10;47.40
11511;DHT22;5812;48.864;9.190;2022-09-03T02:48:22;17.10;24.00
11511;DHT22;5812;48.864;9.190;2022-09-03T02:50:49;17.00;39.60
11511;DHT22;5812;48.864;9.190;2022-09-03T02:53:14;16.90;34.10
11511;DHT22;5812;48.864;9.190;2022-09-03T02:55:40;16.80;34.80
11511;DHT22;5812;48.864;9.190;2022-09-03T02:58:06;16.90;34.90
11511;DHT22;5812;48.864;9.190;2022-09-03T03:00:34;16.90;44.30
11511;DHT22;5812;48.864;9.190;2022-09-03T03:03:01;16.80;55.40
11511;DHT22;5812;48.864;9.190;2022-09-03T03:05:50;16.80;42.90
11511;DHT22;5812;48.864;9.190;2022-09-03T03:08:17;16.90;39.00
11511;DHT22;5812;48.864;9.190;2022-09-03T03:10:46;16.90;30.10
11511;DHT22;5812;48.864;9.190;2022-09-03T03:13:12;17.00;23.50
11511;DHT22;5812;48.864;9.190;2022-09-03T03:15:39;17.00;25.60
11511;DHT22;5812;48.864;9.190;2022-09-03T03:18:05;17.00;22.20
11511;DHT22;5812;48.864;9.190;2022-09-03T03:20:32;16.90;27.30
11511;DHT22;5812;48.864;9.190;2022-09-03T03:23:00;16.90;19.70
11511;DHT22;5812;48.864;9.190;2022-09-03T03:25:25;17.00;15.20
11511;DHT22;5812;48.864;9.190;2022-09-03T03:27:54;17.20;17.70
11511;DHT22;5812;48.864;9.190;2022-09-03T03:30:21;17.20;19.60
11511;DHT22;5812;48.864;9.190;2022-09-03T03:32:47;17.10;25.70
11511;DHT22;5812;48.864;9.190;2022-09-03T03:35:13;17.00;27.10
11511;DHT22;5812;48.864;9.190;2022-09-03T03:37:39;17.20;23.10
11511;DHT22;5812;48.864;9.190;2022-09-03T03:40:05;17.00;13.10
11511;DHT22;5812;48.864;9.190;2022-09-03T03:42:33;17.00;17.80
11511;DHT22;5812;48.864;9.190;2022-09-03T03:44:59;16.90;24.80
11511;DHT22;5812;48.864;9.190;2022-09-03T03:47:29;17.00;20.20
11511;DHT22;5812;48.864;9.190;2022-09-03T03:49:56;17.20;15.10
11511;DHT22;5812;48.864;9.190;2022-09-03T03:52:22;17.20;15.10
11511;DHT22;5812;48.864;9.190;2022-09-03T03:54:48;17.30;18.60
11511;DHT22;5812;48.864;9.190;2022-09-03T03:57:15;17.30;14.30
11511;DHT22;5812;48.864;9.190;2022-09-03T03:59:40;17.40;8.90
11511;DHT22;5812;48.864;9.190;2022-09-03T04:02:06;17.40;16.30
11511;DHT22;5812;48.864;9.190;2022-09-03T04:04:32;17.30;12.20
11511;DHT22;5812;48.864;9.190;2022-09-03T04:06:57;17.40;17.60
11511;DHT22;5812;48.864;9.190;2022-09-03T04:09:23;17.30;12.30
11511;DHT22;5812;48.864;9.190;2022-09-03T04:11:48;17.30;20.70
11511;DHT22;5812;48.864;9.190;2022-09-03T04:14:15;17.40;18.50
11511;DHT22;5812;48.864;9.190;2022-09-03T04:16:42;17.40;20.60
11511;DHT22;5812;48.864;9.190;2022-09-03T04:19:11;17.40;24.90
11511;DHT22;5812;48.864;9.190;2022-09-03T04:21:37;17.50;23.60
11511;DHT22;5812;48.864;9.190;2022-09-03T04:24:04;17.40;23.30
11511;DHT22;5812;48.864;9.190;2022-09-03T04:26:31;17.50;26.80
11511;DHT22;5812;48.864;9.190;2022-09-03T04:29:03;17.40;27.00
11511;DHT22;5812;48.864;9.190;2022-09-03T04:31:29;17.30;28.50
11511;DHT22;5812;48.864;9.190;2022-09-03T04:33:54;17.30;41.30
11511;DHT22;5812;48.864;9.190;2022-09-03T04:36:22;17.20;54.90
11511;DHT22;5812;48.864;9.190;2022-09-03T04:38:50;17.20;70.90
11511;DHT22;5812;48.864;9.190;2022-09-03T04:41:18;17.10;61.90
11511;DHT22;5812;48.864;9.190;2022-09-03T04:43:44;17.10;66.60
11511;DHT22;5812;48.864;9.190;2022-09-03T04:46:12;17.10;83.30
11511;DHT22;5812;48.864;9.190;2022-09-03T04:48:38;17.20;70.60
11511;DHT22;5812;48.864;9.190;2022-09-03T04:51:13;17.30;55.90
11511;DHT22;5812;48.864;9.190;2022-09-03T04:53:41;17.20;73.30
11511;DHT22;5812;48.864;9.190;2022-09-03T04:56:15;17.20;73.60
11511;DHT22;5812;48.864;9.190;2022-09-03T04:58:41;17.10;80.10
11511;DHT22;5812;48.864;9.190;2022-09-03T05:01:15;17.00;98.80
11511;DHT22;5812;48.864;9.190;2022-09-03T05:03:40;17.00;99.90
11511;DHT22;5812;48.864;9.190;2022-09-03T05:06:07;16.90;99.90
11511;DHT22;5812;48.864;9.190;2022-09-03T05:08:33;17.00;90.80
11511;DHT22;5812;48.864;9.190;2022-09-03T05:11:07;17.10;99.90
11511;DHT22;5812;48.864;9.190;2022-09-03T05:13:34;17.10;99.90
11511;DHT22;5812;48.864;9.190;2022-09-03T05:16:01;17.50;93.60
11511;DHT22;5812;48.864;9.190;2022-09-03T05:18:27;17.70;71.80
11511;DHT22;5812;48.864;9.190;2022-09-03T05:21:01;17.70;70.30
11511;DHT22;5812;48.864;9.190;2022-09-03T05:23:28;17.80;55.10
11511;DHT22;5812;48.864;9.190;2022-09-03T05:25:59;17.90;48.90
11511;DHT22;5812;48.864;9.190;2022-09-03T05:28:26;17.80;60.80
11511;DHT22;5812;48.864;9.190;2022-09-03T05:31:02;17.70;96.20
11511;DHT22;5812;48.864;9.190;2022-09-03T05:33:28;17.60;99.90
11511;DHT22;5812;48.864;9.190;2022-09-03T05:36:05;17.70;99.90
11511;DHT22;5812;48.864;9.190;2022-09-03T05:38:32;17.60;99.90
11511;DHT22;5812;48.864;9.190;2022-09-03T05:41:02;17.70;99.90
11511;DHT22;5812;48.864;9.190;2022-09-03T05:43:30;17.60;99.90
11511;DHT22;5812;48.864;9.190;2022-09-03T05:46:00;17.60;99.90
11511;DHT22;5812;48.864;9.190;2022-09-03T05:48:26;17.60;99.90
11511;DHT22;5812;48.864;9.190;2022-09-03T05:50:59;17.60;99.90
11511;DHT22;5812;48.864;9.190;2022-09-03T05:53:26;17.60;99.90
11511;DHT22;5812;48.864;9.190;2022-09-03T05:56:16;17.80;99.90
11511;DHT22;5812;48.864;9.190;2022-09-03T05:58:47;17.90;99.90
11511;DHT22;5812;48.864;9.190;2022-09-03T06:01:35;18.00;99.90
11511;DHT22;5812;48.864;9.190;2022-09-03T06:04:11;18.10;99.90
11511;DHT22;5812;48.864;9.190;2022-09-03T06:06:39;18.10;96.20
11511;DHT22;5812;48.864;9.190;2022-09-03T06:09:07;18.20;94.70
11511;DHT22;5812;48.864;9.190;2022-09-03T06:11:34;18.20;99.90
11511;DHT22;5812;48.864;9.190;2022-09-03T06:14:03;18.30;88.60
11511;DHT22;5812;48.864;9.190;2022-09-03T06:16:31;18.40;59.60
11511;DHT22;5812;48.864;9.190;2022-09-03T06:18:57;18.30;43.40
11511;DHT22;5812;48.864;9.190;2022-09-03T06:21:23;18.40;24.50
11511;DHT22;5812;48.864;9.190;2022-09-03T06:23:53;18.50;53.70
11511;DHT22;5812;48.864;9.190;2022-09-03T06:26:21;18.60;62.40
11511;DHT22;5812;48.864;9.190;2022-09-03T06:28:47;18.70;88.30
11511;DHT22;5812;48.864;9.190;2022-09-03T06:31:16;18.80;63.80
11511;DHT22;5812;48.864;9.190;2022-09-03T06:33:42;19.00;60.70
11511;DHT22;5812;48.864;9.190;2022-09-03T06:36:13;19.10;47.10
11511;DHT22;5812;48.864;9.190;2022-09-03T06:38:39;19.30;48.50
11511;DHT22;5812;48.864;9.190;2022-09-03T06:41:09;19.30;47.80
11511;DHT22;5812;48.864;9.190;2022-09-03T06:43:39;19.40;47.20
11511;DHT22;5812;48.864;9.190;2022-09-03T06:46:07;19.40;29.10
11511;DHT22;5812;48.864;9.190;2022-09-03T06:48:34;19.10;9.70
11511;DHT22;5812;48.864;9.190;2022-09-03T06:51:02;19.10;35.50
11511;DHT22;5812;48.864;9.190;2022-09-03T06:53:30;19.10;19.30
11511;DHT22;5812;48.864;9.190;2022-09-03T06:55:57;19.20;22.70
11511;DHT22;5812;48.864;9.190;2022-09-03T06:58:27;19.30;23.70
11511;DHT22;5812;48.864;9.190;2022-09-03T07:00:53;19.40;27.20
11511;DHT22;5812;48.864;9.190;2022-09-03T07:03:19;19.80;65.70
11511;DHT22;5812;48.864;9.190;2022-09-03T07:05:46;19.80;16.30
11511;DHT22;5812;48.864;9.190;2022-09-03T07:08:12;20.00;31.00
11511;DHT22;5812;48.864;9.190;2022-09-03T07:10:37;20.20;37.90
11511;DHT22;5812;48.864;9.190;2022-09-03T07:13:03;20.20;1.00
11511;DHT22;5812;48.864;9.190;2022-09-03T07:15:31;20.30;17.90
11511;DHT22;5812;48.864;9.190;2022-09-03T07:17:58;20.40;21.30
11511;DHT22;5812;48.864;9.190;2022-09-03T07:20:23;20.40;6.60
11511;DHT22;5812;48.864;9.190;2022-09-03T07:22:49;20.50;1.00
11511;DHT22;5812;48.864;9.190;2022-09-03T07:25:14;20.70;1.00
11511;DHT22;5812;48.864;9.190;2022-09-03T07:27:40;20.30;1.00
11511;DHT22;5812;48.864;9.190;2022-09-03T07:30:06;20.30;1.00
11511;DHT22;5812;48.864;9.190;2022-09-03T07:32:34;20.50;1.00
11511;DHT22;5812;48.864;9.190;2022-09-03T07:35:01;20.70;1.00
11511;DHT22;5812;48.864;9.190;2022-09-03T07:37:27;20.90;1.00
11511;DHT22;5812;48.864;9.190;2022-09-03T07:39:53;21.00;1.00
11511;DHT22;5812;48.864;9.190;2022-09-03T07:42:18;21.20;1.00
11511;DHT22;5812;48.864;9.190;2022-09-03T07:44:45;21.30;1.00
11511;DHT22;5812;48.864;9.190;2022-09-03T07:47:10;21.20;1.00
11511;DHT22;5812;48.864;9.190;2022-09-03T07:49:37;21.30;1.00
11511;DHT22;5812;48.864;9.190;2022-09-03T07:52:03;21.50;1.00
11511;DHT22;5812;48.864;9.190;2022-09-03T07:54:29;21.10;1.00
11511;DHT22;5812;48.864;9.190;2022-09-03T07:56:55;21.60;1.00
11511;DHT22;5812;48.864;9.190;2022-09-03T07:59:21;22.00;1.00
11511;DHT22;5812;48.864;9.190;2022-09-03T08:01:48;22.30;1.00
11511;DHT22;5812;48.864;9.190;2022-09-03T08:04:15;22.40;1.00
11511;DHT22;5812;48.864;9.190;2022-09-03T08:06:41;22.60;1.00
11511;DHT22;5812;48.864;9.190;2022-09-03T08:09:09;22.90;1.00
11511;DHT22;5812;48.864;9.190;2022-09-03T08:11:37;23.00;1.00
11511;DHT22;5812;48.864;9.190;2022-09-03T08:14:08;23.10;1.00
11511;DHT22;5812;48.864;9.190;2022-09-03T08:16:36;23.40;1.00
11511;DHT22;5812;48.864;9.190;2022-09-03T08:19:03;23.40;1.00
11511;DHT22;5812;48.864;9.190;2022-09-03T08:21:28;23.60;1.00
11511;DHT22;5812;48.864;9.190;2022-09-03T08:23:55;23.50;1.00
11511;DHT22;5812;48.864;9.190;2022-09-03T08:26:28;23.50;1.00
11511;DHT22;5812;48.864;9.190;2022-09-03T08:28:54;23.30;1.00
11511;DHT22;5812;48.864;9.190;2022-09-03T08:31:21;23.10;1.00
11511;DHT22;5812;48.864;9.190;2022-09-03T08:33:52;24.10;1.00
11511;DHT22;5812;48.864;9.190;2022-09-03T08:36:19;24.40;1.00
11511;DHT22;5812;48.864;9.190;2022-09-03T08:38:46;24.80;1.00
11511;DHT22;5812;48.864;9.190;2022-09-03T08:41:16;24.80;1.00
11511;DHT22;5812;48.864;9.190;2022-09-03T08:52:54;23.50;1.00
11511;DHT22;5812;48.864;9.190;2022-09-03T08:55:28;23.00;1.00
11511;DHT22;5812;48.864;9.190;2022-09-03T08:58:16;22.90;1.00
11511;DHT22;5812;48.864;9.190;2022-09-03T09:01:11;22.70;1.00
11511;DHT22;5812;48.864;9.190;2022-09-03T09:15:06;22.50;28.80
11511;DHT22;5812;48.864;9.190;2022-09-03T09:20:47;22.90;6.60
11511;DHT22;5812;48.864;9.190;2022-09-03T09:26:16;23.90;1.00
11511;DHT22;5812;48.864;9.190;2022-09-03T09:28:45;24.00;1.00
11511;DHT22;5812;48.864;9.190;2022-09-03T09:31:14;24.30;1.00
11511;DHT22;5812;48.864;9.190;2022-09-03T09:33:43;24.40;1.00
11511;DHT22;5812;48.864;9.190;2022-09-03T09:36:11;24.20;1.00
11511;DHT22;5812;48.864;9.190;2022-09-03T09:38:40;24.30;1.00
11511;DHT22;5812;48.864;9.190;2022-09-03T09:41:17;24.70;1.00
11511;DHT22;5812;48.864;9.190;2022-09-03T09:43:45;24.60;1.00
11511;DHT22;5812;48.864;9.190;2022-09-03T09:46:24;24.70;1.00
11511;DHT22;5812;48.864;9.190;2022-09-03T09:48:53;25.00;1.00
11511;DHT22;5812;48.864;9.190;2022-09-03T09:51:23;25.00;1.00
11511;DHT22;5812;48.864;9.190;2022-09-03T09:54:14;24.80;1.00
11511;DHT22;5812;48.864;9.190;2022-09-03T09:56:45;25.00;1.00
11511;DHT22;5812;48.864;9.190;2022-09-03T09:59:13;25.00;1.00
11511;DHT22;5812;48.864;9.190;2022-09-03T10:01:41;25.60;1.00
11511;DHT22;5812;48.864;9.190;2022-09-03T10:04:28;25.80;1.00
11511;DHT22;5812;48.864;9.190;2022-09-03T10:10:03;25.80;1.00
11511;DHT22;5812;48.864;9.190;2022-09-03T10:15:16;26.30;1.00
11511;DHT22;5812;48.864;9.190;2022-09-03T10:23:24;26.70;1.00
11511;DHT22;5812;48.864;9.190;2022-09-03T10:28:36;27.70;1.00
11511;DHT22;5812;48.864;9.190;2022-09-03T10:34:47;28.30;1.00
11511;DHT22;5812;48.864;9.190;2022-09-03T10:40:24;28.10;1.00
11511;DHT22;5812;48.864;9.190;2022-09-03T10:51:09;28.90;1.00
11511;DHT22;5812;48.864;9.190;2022-09-03T10:53:42;29.30;1.00
11511;DHT22;5812;48.864;9.190;2022-09-03T11:07:24;29.00;1.00
11511;DHT22;5812;48.864;9.190;2022-09-03T11:10:00;29.10;1.00
11511;DHT22;5812;48.864;9.190;2022-09-03T11:12:34;29.80;1.00
11511;DHT22;5812;48.864;9.190;2022-09-03T11:15:27;28.90;1.00
11511;DHT22;5812;48.864;9.190;2022-09-03T11:18:03;28.60;1.00
11511;DHT22;5812;48.864;9.190;2022-09-03T11:20:32;29.20;1.00
11511;DHT22;5812;48.864;9.190;2022-09-03T11:23:01;29.60;1.00
11511;DHT22;5812;48.864;9.190;2022-09-03T11:25:31;29.20;1.00
11511;DHT22;5812;48.864;9.190;2022-09-03T11:33:20;28.90;1.00
11511;DHT22;5812;48.864;9.190;2022-09-03T11:35:56;28.90;1.00
11511;DHT22;5812;48.864;9.190;2022-09-03T11:38:22;28.60;1.00
11511;DHT22;5812;48.864;9.190;2022-09-03T11:46:01;28.00;1.00
11511;DHT22;5812;48.864;9.190;2022-09-03T11:48:36;27.50;1.00
11511;DHT22;5812;48.864;9.190;2022-09-03T11:51:02;25.90;1.00
11511;DHT22;5812;48.864;9.190;2022-09-03T11:53:35;26.10;1.00
11511;DHT22;5812;48.864;9.190;2022-09-03T11:58:35;26.70;1.00
11511;DHT22;5812;48.864;9.190;2022-09-03T12:01:04;26.20;1.00
11511;DHT22;5812;48.864;9.190;2022-09-03T12:03:53;25.40;1.00
11511;DHT22;5812;48.864;9.190;2022-09-03T12:12:00;24.70;1.00
11511;DHT22;5812;48.864;9.190;2022-09-03T12:17:51;24.20;1.00
11511;DHT22;5812;48.864;9.190;2022-09-03T12:20:38;23.70;1.00
11511;DHT22;5812;48.864;9.190;2022-09-03T12:23:03;23.60;1.00
11511;DHT22;5812;48.864;9.190;2022-09-03T12:25:29;23.40;1.00
11511;DHT22;5812;48.864;9.190;2022-09-03T12:27:55;23.10;1.00
11511;DHT22;5812;48.864;9.190;2022-09-03T12:30:23;23.40;1.00
11511;DHT22;5812;48.864;9.190;2022-09-03T12:32:49;23.40;1.00
11511;DHT22;5812;48.864;9.190;2022-09-03T12:35:19;23.20;1.00
11511;DHT22;5812;48.864;9.190;2022-09-03T12:37:45;23.10;1.00
11511;DHT22;5812;48.864;9.190;2022-09-03T12:40:19;23.10;1.00
11511;DHT22;5812;48.864;9.190;2022-09-03T12:42:46;23.00;1.00
11511;DHT22;5812;48.864;9.190;2022-09-03T12:45:12;22.90;1.00
11511;DHT22;5812;48.864;9.190;2022-09-03T12:47:41;22.70;1.00
11511;DHT22;5812;48.864;9.190;2022-09-03T12:50:15;22.60;1.00
11511;DHT22;5812;48.864;9.190;2022-09-03T12:52:45;22.60;3.20
11511;DHT22;5812;48.864;9.190;2022-09-03T12:55:25;22.60;97.80
11511;DHT22;5812;48.864;9.190;2022-09-03T12:58:24;22.30;73.40
11511;DHT22;5812;48.864;9.190;2022-09-03T13:03:43;21.20;97.10
11511;DHT22;5812;48.864;9.190;2022-09-03T13:06:12;20.70;99.90
11511;DHT22;5812;48.864;9.190;2022-09-03T13:08:57;20.40;1.00
11511;DHT22;5812;48.864;9.190;2022-09-03T13:11:24;20.10;1.00
11511;DHT22;5812;48.864;9.190;2022-09-03T13:14:07;19.90;1.00
11511;DHT22;5812;48.864;9.190;2022-09-03T13:27:19;19.90;94.20
11511;DHT22;5812;48.864;9.190;2022-09-03T13:30:09;19.80;99.90
11511;DHT22;5812;48.864;9.190;2022-09-03T13:35:43;20.40;47.90
11511;DHT22;5812;48.864;9.190;2022-09-03T13:43:38;21.00;28.20
11511;DHT22;5812;48.864;9.190;2022-09-03T13:46:32;21.10;1.00
11511;DHT22;5812;48.864;9.190;2022-09-03T13:49:25;21.70;1.00
11511;DHT22;5812;48.864;9.190;2022-09-03T13:52:20;22.20;99.90
11511;DHT22;5812;48.864;9.190;2022-09-03T13:54:56;22.40;99.90
11511;DHT22;5812;48.864;9.190;2022-09-03T13:57:39;22.30;99.90
11511;DHT22;5812;48.864;9.190;2022-09-03T14:00:12;21.70;96.90
11511;DHT22;5812;48.864;9.190;2022-09-03T14:03:02;21.40;99.90
11511;DHT22;5812;48.864;9.190;2022-09-03T14:05:46;21.30;1.00
11511;DHT22;5812;48.864;9.190;2022-09-03T14:08:27;21.40;1.00
11511;DHT22;5812;48.864;9.190;2022-09-03T14:18:57;21.70;99.90
11511;DHT22;5812;48.864;9.190;2022-09-03T14:21:32;21.60;1.00
11511;DHT22;5812;48.864;9.190;2022-09-03T14:26:59;21.40;99.90
11511;DHT22;5812;48.864;9.190;2022-09-03T14:29:31;21.30;99.90
11511;DHT22;5812;48.864;9.190;2022-09-03T14:40:18;20.90;99.90
11511;DHT22;5812;48.864;9.190;2022-09-03T14:57:11;19.80;1.00
11511;DHT22;5812;48.864;9.190;2022-09-03T15:00:03;19.60;27.00
11511;DHT22;5812;48.864;9.190;2022-09-03T15:08:06;19.70;99.20
11511;DHT22;5812;48.864;9.190;2022-09-03T15:10:41;19.70;99.90
11511;DHT22;5812;48.864;9.190;2022-09-03T15:13:36;19.80;99.90
11511;DHT22;5812;48.864;9.190;2022-09-03T15:21:39;20.20;99.90
11511;DHT22;5812;48.864;9.190;2022-09-03T15:27:01;20.60;99.90
11511;DHT22;5812;48.864;9.190;2022-09-03T15:35:36;21.60;1.00
11511;DHT22;5812;48.864;9.190;2022-09-03T15:38:18;21.50;1.00
11511;DHT22;5812;48.864;9.190;2022-09-03T15:43:26;21.10;1.00
11511;DHT22;5812;48.864;9.190;2022-09-03T15:45:58;21.00;1.00
11511;DHT22;5812;48.864;9.190;2022-09-03T15:48:43;20.80;1.00
11511;DHT22;5812;48.864;9.190;2022-09-03T15:51:40;20.60;46.80
11511;DHT22;5812;48.864;9.190;2022-09-03T15:54:45;20.60;19.90
11511;DHT22;5812;48.864;9.190;2022-09-03T15:57:19;20.70;38.30
11511;DHT22;5812;48.864;9.190;2022-09-03T15:59:53;20.70;1.00
11511;DHT22;5812;48.864;9.190;2022-09-03T16:02:44;21.00;1.00
11511;DHT22;5812;48.864;9.190;2022-09-03T16:05:34;21.00;1.00
11511;DHT22;5812;48.864;9.190;2022-09-03T16:08:21;20.90;1.00
11511;DHT22;5812;48.864;9.190;2022-09-03T16:11:12;21.00;1.00
11511;DHT22;5812;48.864;9.190;2022-09-03T16:14:04;20.90;1.00
11511;DHT22;5812;48.864;9.190;2022-09-03T16:19:40;21.00;1.00
11511;DHT22;5812;48.864;9.190;2022-09-03T16:24:54;20.80;1.00
11511;DHT22;5812;48.864;9.190;2022-09-03T16:33:38;20.50;13.60
11511;DHT22;5812;48.864;9.190;2022-09-03T16:50:48;21.00;9.20
11511;DHT22;5812;48.864;9.190;2022-09-03T17:10:06;21.30;1.00
11511;DHT22;5812;48.864;9.190;2022-09-03T17:12:37;21.10;1.00
11511;DHT22;5812;48.864;9.190;2022-09-03T17:18:18;21.00;1.00
11511;DHT22;5812;48.864;9.190;2022-09-03T17:21:13;20.80;1.00
11511;DHT22;5812;48.864;9.190;2022-09-03T17:24:06;20.50;1.00
11511;DHT22;5812;48.864;9.190;2022-09-03T17:35:15;20.40;1.00
11511;DHT22;5812;48.864;9.190;2022-09-03T17:37:48;20.30;1.00
11511;DHT22;5812;48.864;9.190;2022-09-03T17:40:40;20.20;1.00
11511;DHT22;5812;48.864;9.190;2022-09-03T17:43:21;20.20;1.20
11511;DHT22;5812;48.864;9.190;2022-09-03T17:48:51;19.90;33.90
11511;DHT22;5812;48.864;9.190;2022-09-03T17:51:36;20.00;12.60
11511;DHT22;5812;48.864;9.190;2022-09-03T17:56:48;19.70;37.10
11511;DHT22;5812;48.864;9.190;2022-09-03T18:02:07;19.70;64.20
11511;DHT22;5812;48.864;9.190;2022-09-03T18:04:45;19.60;69.20
11511;DHT22;5812;48.864;9.190;2022-09-03T18:10:09;19.40;84.20
11511;DHT22;5812;48.864;9.190;2022-09-03T18:13:05;19.40;93.20
11511;DHT22;5812;48.864;9.190;2022-09-03T18:18:11;19.20;94.00
11511;DHT22;5812;48.864;9.190;2022-09-03T18:20:50;19.00;99.90
11511;DHT22;5812;48.864;9.190;2022-09-03T18:23:49;18.90;99.90
11511;DHT22;5812;48.864;9.190;2022-09-03T18:26:42;18.90;99.90
11511;DHT22;5812;48.864;9.190;2022-09-03T18:29:38;18.70;99.90
11511;DHT22;5812;48.864;9.190;2022-09-03T18:32:26;18.60;99.90
11511;DHT22;5812;48.864;9.190;2022-09-03T18:35:11;18.60;99.90
11511;DHT22;5812;48.864;9.190;2022-09-03T18:37:55;18.50;99.90
11511;DHT22;5812;48.864;9.190;2022-09-03T18:40:58;18.60;99.90
11511;DHT22;5812;48.864;9.190;2022-09-03T18:43:52;18.50;99.90
11511;DHT22;5812;48.864;9.190;2022-09-03T18:47:08;18.40;99.90
11511;DHT22;5812;48.864;9.190;2022-09-03T18:53:43;18.40;99.90
11511;DHT22;5812;48.864;9.190;2022-09-03T18:56:42;18.50;99.90
11511;DHT22;5812;48.864;9.190;2022-09-03T18:59:35;18.40;99.90
11511;DHT22;5812;48.864;9.190;2022-09-03T19:08:45;18.50;99.90
11511;DHT22;5812;48.864;9.190;2022-09-03T19:11:53;18.50;99.90
11511;DHT22;5812;48.864;9.190;2022-09-03T19:20:31;18.40;99.90
11511;DHT22;5812;48.864;9.190;2022-09-03T19:23:18;18.40;99.90
11511;DHT22;5812;48.864;9.190;2022-09-03T19:29:42;18.50;99.90
11511;DHT22;5812;48.864;9.190;2022-09-03T19:48:43;18.30;99.90
11511;DHT22;5812;48.864;9.190;2022-09-03T19:51:52;18.30;99.90
11511;DHT22;5812;48.864;9.190;2022-09-03T19:54:40;18.20;99.90
11511;DHT22;5812;48.864;9.190;2022-09-03T19:57:25;18.10;99.90
11511;DHT22;5812;48.864;9.190;2022-09-03T20:00:10;18.00;99.90
11511;DHT22;5812;48.864;9.190;2022-09-03T20:02:55;18.00;99.90
11511;DHT22;5812;48.864;9.190;2022-09-03T20:05:40;18.00;99.90
11511;DHT22;5812;48.864;9.190;2022-09-03T20:08:25;17.90;99.90
11511;DHT22;5812;48.864;9.190;2022-09-03T20:11:17;17.90;99.90
11511;DHT22;5812;48.864;9.190;2022-09-03T20:13:43;17.80;99.90
11511;DHT22;5812;48.864;9.190;2022-09-03T20:30:17;17.80;99.90
11511;DHT22;5812;48.864;9.190;2022-09-03T20:33:28;17.70;99.90
11511;DHT22;5812;48.864;9.190;2022-09-03T20:39:09;17.70;99.90
11511;DHT22;5812;48.864;9.190;2022-09-03T20:47:37;17.50;99.90
11511;DHT22;5812;48.864;9.190;2022-09-03T20:53:26;17.40;99.90
11511;DHT22;5812;48.864;9.190;2022-09-03T20:56:07;17.40;99.90
11511;DHT22;5812;48.864;9.190;2022-09-03T21:02:16;17.40;99.90
11511;DHT22;5812;48.864;9.190;2022-09-03T21:13:23;17.40;99.90
11511;DHT22;5812;48.864;9.190;2022-09-03T21:18:55;17.40;99.90
11511;DHT22;5812;48.864;9.190;2022-09-03T21:21:25;17.50;99.90
11511;DHT22;5812;48.864;9.190;2022-09-03T21:24:13;17.50;99.90
11511;DHT22;5812;48.864;9.190;2022-09-03T21:26:44;17.60;99.90
11511;DHT22;5812;48.864;9.190;2022-09-03T21:34:34;17.60;99.90
11511;DHT22;5812;48.864;9.190;2022-09-03T21:37:03;17.50;99.90
11511;DHT22;5812;48.864;9.190;2022-09-03T21:39:33;17.60;99.90
11511;DHT22;5812;48.864;9.190;2022-09-03T21:42:09;17.50;99.90
11511;DHT22;5812;48.864;9.190;2022-09-03T21:47:10;17.40;99.90
11511;DHT22;5812;48.864;9.190;2022-09-03T21:52:47;17.60;99.90
11511;DHT22;5812;48.864;9.190;2022-09-03T22:00:39;17.90;99.90
11511;DHT22;5812;48.864;9.190;2022-09-03T22:03:07;17.90;99.90
11511;DHT22;5812;48.864;9.190;2022-09-03T22:08:43;17.80;99.90
11511;DHT22;5812;48.864;9.190;2022-09-03T22:11:41;17.70;99.90
11511;DHT22;5812;48.864;9.190;2022-09-03T22:14:19;17.80;99.90
11511;DHT22;5812;48.864;9.190;2022-09-03T22:17:13;17.90;99.90
11511;DHT22;5812;48.864;9.190;2022-09-03T22:19:41;18.30;99.90
11511;DHT22;5812;48.864;9.190;2022-09-03T22:22:41;18.30;99.90
11511;DHT22;5812;48.864;9.190;2022-09-03T22:25:16;18.30;99.90
11511;DHT22;5812;48.864;9.190;2022-09-03T22:28:13;18.30;99.90
11511;DHT22;5812;48.864;9.190;2022-09-03T22:31:04;18.10;99.90
11511;DHT22;5812;48.864;9.190;2022-09-03T22:44:21;17.90;99.90
11511;DHT22;5812;48.864;9.190;2022-09-03T22:49:50;18.10;99.90
11511;DHT22;5812;48.864;9.190;2022-09-03T22:55:16;18.00;99.90
11511;DHT22;5812;48.864;9.190;2022-09-03T22:57:56;17.80;99.90
11511;DHT22;5812;48.864;9.190;2022-09-03T23:00:23;17.90;99.90
11511;DHT22;5812;48.864;9.190;2022-09-03T23:02:55;18.10;99.90
11511;DHT22;5812;48.864;9.190;2022-09-03T23:05:58;18.10;99.90
11511;DHT22;5812;48.864;9.190;2022-09-03T23:08:32;18.10;99.90